createdAt,value
2023-02-03T00:00:16.898Z,100806.16
2023-02-03T00:03:05.616Z,100810.48
2023-02-03T00:05:35.795Z,100815.49
2023-02-03T00:08:07.440Z,100819.98
2023-02-03T00:10:38.781Z,100825.73
2023-02-03T00:13:09.139Z,100830.17
2023-02-03T00:15:37.952Z,100832.60
2023-02-03T00:18:06.828Z,100832.40
2023-02-03T00:20:35.506Z,100834.83
2023-02-03T00:23:10.056Z,100837.45
2023-02-03T00:25:39.650Z,100843.34
2023-02-03T00:28:08.596Z,100845.31
2023-02-03T00:30:38.496Z,100851.08
2023-02-03T00:33:07.166Z,100856.48
2023-02-03T00:35:40.137Z,100855.02
2023-02-03T00:38:08.970Z,100856.31
2023-02-03T00:40:37.724Z,100863.15
2023-02-03T00:43:06.535Z,100863.17
2023-02-03T00:45:35.318Z,100870.50
2023-02-03T00:48:05.112Z,100871.58
2023-02-03T00:50:33.884Z,100878.19
2023-02-03T00:53:02.629Z,100877.94
2023-02-03T00:55:31.386Z,100884.19
2023-02-03T00:58:00.182Z,100885.17
2023-02-03T01:00:29.702Z,100889.05
2023-02-03T01:02:58.386Z,100899.23
2023-02-03T01:05:27.266Z,100897.15
2023-02-03T01:07:55.945Z,100900.55
2023-02-03T01:10:25.170Z,100900.42
2023-02-03T01:12:54.227Z,100897.51
2023-02-03T01:15:23.226Z,100902.73
2023-02-03T01:17:52.008Z,100901.27
2023-02-03T01:20:21.728Z,100905.55
2023-02-03T01:22:50.457Z,100908.16
2023-02-03T01:25:19.137Z,100907.48
2023-02-03T01:27:48.378Z,100905.77
2023-02-03T01:30:18.619Z,100901.52
2023-02-03T01:32:49.061Z,100899.44
2023-02-03T01:35:17.752Z,100905.16
2023-02-03T01:37:46.509Z,100906.63
2023-02-03T01:40:15.210Z,100905.80
2023-02-03T01:42:44.009Z,100905.42
2023-02-03T01:45:13.717Z,100909.83
2023-02-03T01:47:59.208Z,100906.77
2023-02-03T01:50:38.089Z,100908.28
2023-02-03T01:53:12.735Z,100907.98
2023-02-03T01:55:46.559Z,100907.19
2023-02-03T01:58:26.119Z,100910.39
2023-02-03T02:00:57.654Z,100906.36
2023-02-03T02:03:48.728Z,100908.67
2023-02-03T02:06:17.643Z,100909.52
2023-02-03T02:08:50.609Z,100910.27
2023-02-03T02:11:23.321Z,100909.77
2023-02-03T02:13:55.990Z,100911.79
2023-02-03T02:16:51.921Z,100913.84
2023-02-03T02:20:30.447Z,100913.85
2023-02-03T02:23:53.314Z,100911.18
2023-02-03T02:27:01.888Z,100913.23
2023-02-03T02:30:17.035Z,100908.22
2023-02-03T02:33:29.675Z,100915.80
2023-02-03T02:36:44.626Z,100915.76
2023-02-03T02:39:22.987Z,100924.95
2023-02-03T02:42:17.676Z,100926.84
2023-02-03T02:45:05.499Z,100929.19
2023-02-03T02:47:34.507Z,100932.39
2023-02-03T02:50:25.576Z,100936.88
2023-02-03T02:52:57.192Z,100945.03
2023-02-03T02:55:34.265Z,100945.86
2023-02-03T02:58:14.445Z,100953.09
2023-02-03T03:00:44.346Z,100949.19
2023-02-03T03:03:20.413Z,100954.98
2023-02-03T03:06:29.437Z,100958.86
2023-02-03T03:09:10.302Z,100959.92
2023-02-03T03:12:00.808Z,100958.38
2023-02-03T03:14:32.593Z,100964.16
2023-02-03T03:17:06.850Z,100968.56
2023-02-03T03:19:43.045Z,100974.05
2023-02-03T03:22:16.394Z,100975.35
2023-02-03T03:24:55.999Z,100981.23
2023-02-03T03:27:30.380Z,100984.73
2023-02-03T03:30:07.026Z,100981.64
2023-02-03T03:32:35.918Z,100981.97
2023-02-03T03:35:06.535Z,100979.19
2023-02-03T03:37:42.456Z,100977.21
2023-02-03T03:40:11.747Z,100982.73
2023-02-03T03:42:54.656Z,100983.39
2023-02-03T03:45:38.484Z,100984.64
2023-02-03T03:48:21.561Z,100992.27
2023-02-03T03:51:15.550Z,100996.23
2023-02-03T03:53:47.907Z,100993.48
2023-02-03T03:56:28.103Z,100995.65
2023-02-03T03:59:01.584Z,100998.29
2023-02-03T04:01:32.798Z,101004.23
2023-02-03T04:04:08.375Z,101000.44
2023-02-03T04:06:39.992Z,101003.15
2023-02-03T04:09:08.956Z,101007.86
2023-02-03T04:11:56.192Z,101008.73
2023-02-03T04:14:25.027Z,101014.52
2023-02-03T04:16:53.933Z,101016.42
2023-02-03T04:19:23.029Z,101020.17
2023-02-03T04:21:52.041Z,101019.18
2023-02-03T04:24:20.796Z,101019.49
2023-02-03T04:26:49.611Z,101019.73
2023-02-03T04:29:18.321Z,101019.62
2023-02-03T04:31:47.092Z,101018.21
2023-02-03T04:34:15.838Z,101025.38
2023-02-03T04:36:44.538Z,101025.50
2023-02-03T04:39:13.335Z,101027.88
2023-02-03T04:41:42.050Z,101028.56
2023-02-03T04:44:10.701Z,101030.93
2023-02-03T04:46:39.438Z,101026.94
2023-02-03T04:49:09.977Z,101029.84
2023-02-03T04:51:38.846Z,101032.70
2023-02-03T04:54:07.592Z,101033.85
2023-02-03T04:56:36.952Z,101039.68
2023-02-03T04:59:05.748Z,101039.96
2023-02-03T05:01:34.783Z,101033.71
2023-02-03T05:04:03.540Z,101034.91
2023-02-03T05:06:34.772Z,101033.66
2023-02-03T05:09:04.033Z,101036.27
2023-02-03T05:11:33.343Z,101041.09
2023-02-03T05:14:02.252Z,101044.61
2023-02-03T05:16:31.031Z,101049.90
2023-02-03T05:18:59.750Z,101052.87
2023-02-03T05:21:28.462Z,101063.31
2023-02-03T05:23:57.176Z,101069.33
2023-02-03T05:26:25.881Z,101077.00
2023-02-03T05:28:56.678Z,101085.42
2023-02-03T05:31:26.759Z,101086.65
2023-02-03T05:33:55.913Z,101090.73
2023-02-03T05:36:24.717Z,101104.23
2023-02-03T05:38:53.467Z,101112.92
2023-02-03T05:41:40.528Z,101117.46
2023-02-03T05:44:09.438Z,101121.48
2023-02-03T05:46:38.176Z,101127.29
2023-02-03T05:49:07.039Z,101131.35
2023-02-03T05:51:36.006Z,101133.15
2023-02-03T05:54:04.854Z,101135.38
2023-02-03T05:56:33.764Z,101137.55
2023-02-03T05:59:02.458Z,101142.35
2023-02-03T06:01:32.402Z,101146.40
2023-02-03T06:04:02.492Z,101146.95
2023-02-03T06:06:34.577Z,101151.88
2023-02-03T06:09:07.462Z,101152.65
2023-02-03T06:11:36.937Z,101155.23
2023-02-03T06:14:05.812Z,101149.40
2023-02-03T06:16:34.612Z,101149.80
2023-02-03T06:19:03.497Z,101151.02
2023-02-03T06:21:32.420Z,101154.86
2023-02-03T06:24:01.186Z,101154.30
2023-02-03T06:26:29.872Z,101157.45
2023-02-03T06:28:58.635Z,101163.20
2023-02-03T06:31:27.518Z,101163.38
2023-02-03T06:33:57.426Z,101164.14
2023-02-03T06:36:26.178Z,101168.73
2023-02-03T06:38:54.891Z,101169.16
2023-02-03T06:41:27.692Z,101181.15
2023-02-03T06:43:56.967Z,101189.01
2023-02-03T06:46:30.073Z,101196.94
2023-02-03T06:48:59.737Z,101203.30
2023-02-03T06:51:28.557Z,101212.20
2023-02-03T06:53:58.918Z,101214.19
2023-02-03T06:56:27.738Z,101207.17
2023-02-03T06:58:58.022Z,101208.50
2023-02-03T07:01:26.966Z,101208.36
2023-02-03T07:04:00.316Z,101207.65
2023-02-03T07:06:34.152Z,101215.02
2023-02-03T07:09:05.953Z,101211.33
2023-02-03T07:11:34.988Z,101209.92
2023-02-03T07:14:04.219Z,101207.99
2023-02-03T07:16:34.461Z,101215.14
2023-02-03T07:19:03.553Z,101207.14
2023-02-03T07:21:32.516Z,101208.16
2023-02-03T07:24:03.139Z,101203.70
2023-02-03T07:26:31.829Z,101207.72
2023-02-03T07:29:01.006Z,101214.34
2023-02-03T07:31:29.838Z,101205.73
2023-02-03T07:33:58.707Z,101198.86
2023-02-03T07:36:29.058Z,101201.56
2023-02-03T07:38:57.763Z,101211.16
2023-02-03T07:41:26.625Z,101209.79
2023-02-03T07:43:55.271Z,101210.30
2023-02-03T07:46:24.412Z,101209.58
2023-02-03T07:48:53.156Z,101203.20
2023-02-03T07:51:21.918Z,101204.06
2023-02-03T07:53:50.718Z,101210.42
2023-02-03T07:56:19.498Z,101212.93
2023-02-03T07:58:48.184Z,101202.89
2023-02-03T08:01:17.506Z,101207.52
2023-02-03T08:03:46.333Z,101203.80
2023-02-03T08:06:15.254Z,101203.36
2023-02-03T08:08:44.161Z,101201.21
2023-02-03T08:11:12.887Z,101209.90
2023-02-03T08:13:41.637Z,101204.83
2023-02-03T08:16:10.385Z,101207.34
2023-02-03T08:18:39.283Z,101205.06
2023-02-03T08:21:08.048Z,101203.64
2023-02-03T08:23:36.819Z,101206.47
2023-02-03T08:26:05.596Z,101214.34
2023-02-03T08:28:34.326Z,101225.80
2023-02-03T08:31:09.445Z,101232.16
2023-02-03T08:33:38.731Z,101230.77
2023-02-03T08:36:08.058Z,101219.09
2023-02-03T08:38:37.052Z,101228.73
2023-02-03T08:41:12.502Z,101225.89
2023-02-03T08:43:41.983Z,101231.36
2023-02-03T08:46:13.087Z,101236.61
2023-02-03T08:48:41.921Z,101229.26
2023-02-03T08:51:14.678Z,101231.33
2023-02-03T08:53:43.780Z,101236.06
2023-02-03T08:56:13.444Z,101242.45
2023-02-03T08:58:42.237Z,101228.91
2023-02-03T09:01:14.394Z,101240.39
2023-02-03T09:03:43.825Z,101246.39
2023-02-03T09:06:13.414Z,101241.08
2023-02-03T09:08:42.510Z,101242.35
2023-02-03T09:11:15.759Z,101251.66
2023-02-03T09:13:48.947Z,101245.64
2023-02-03T09:16:18.846Z,101248.40
2023-02-03T09:18:48.366Z,101243.05
2023-02-03T09:21:32.117Z,101243.66
2023-02-03T09:24:05.268Z,101241.48
2023-02-03T09:26:33.990Z,101246.65
2023-02-03T09:29:02.798Z,101241.95
2023-02-03T09:31:31.460Z,101246.42
2023-02-03T09:34:00.755Z,101244.65
2023-02-03T09:36:29.599Z,101237.12
2023-02-03T09:38:58.720Z,101230.45
2023-02-03T09:42:03.846Z,101230.73
2023-02-03T09:45:00.618Z,101237.73
2023-02-03T09:47:35.019Z,101238.70
2023-02-03T09:50:11.669Z,101245.41
2023-02-03T09:52:42.421Z,101240.02
2023-02-03T09:55:22.324Z,101244.61
2023-02-03T09:58:03.593Z,101255.92
2023-02-03T10:00:56.368Z,101246.87
2023-02-03T10:03:32.618Z,101234.39
2023-02-03T10:06:13.329Z,101244.56
2023-02-03T10:09:35.049Z,101244.41
2023-02-03T10:12:22.216Z,101236.99
2023-02-03T10:15:18.436Z,101231.16
2023-02-03T10:18:13.202Z,101227.52
2023-02-03T10:20:55.165Z,101217.44
2023-02-03T10:23:38.214Z,101215.69
2023-02-03T10:26:24.929Z,101213.58
2023-02-03T10:29:13.527Z,101215.52
2023-02-03T10:31:44.439Z,101224.36
2023-02-03T10:34:16.533Z,101226.36
2023-02-03T10:37:17.066Z,101228.74
2023-02-03T10:39:49.669Z,101234.67
2023-02-03T10:42:19.629Z,101228.70
2023-02-03T10:44:59.114Z,101234.87
2023-02-03T10:47:35.037Z,101235.66
2023-02-03T10:50:35.686Z,101229.40
2023-02-03T10:53:22.710Z,101228.14
2023-02-03T10:56:11.409Z,101224.69
2023-02-03T10:58:58.579Z,101217.30
2023-02-03T11:01:44.193Z,101209.26
2023-02-03T11:04:33.859Z,101205.75
2023-02-03T11:07:07.051Z,101213.51
2023-02-03T11:09:43.018Z,101208.25
2023-02-03T11:12:20.801Z,101196.34
2023-02-03T11:14:52.976Z,101202.23
2023-02-03T11:17:29.856Z,101196.17
2023-02-03T11:20:17.082Z,101197.26
2023-02-03T11:22:46.025Z,101194.00
2023-02-03T11:25:30.048Z,101193.19
2023-02-03T11:28:05.746Z,101200.69
2023-02-03T11:30:34.633Z,101209.34
2023-02-03T11:33:04.079Z,101207.19
2023-02-03T11:35:33.824Z,101213.88
2023-02-03T11:38:02.821Z,101201.98
2023-02-03T11:40:38.738Z,101200.44
2023-02-03T11:43:18.247Z,101195.46
2023-02-03T11:45:53.261Z,101194.98
2023-02-03T11:48:32.350Z,101186.29
2023-02-03T11:51:32.048Z,101191.30
2023-02-03T11:54:25.335Z,101200.39
2023-02-03T11:57:32.002Z,101198.13
2023-02-03T12:00:18.141Z,101195.10
2023-02-03T12:03:14.386Z,101188.39
2023-02-03T12:05:46.217Z,101184.79
2023-02-03T12:08:52.272Z,101192.70
2023-02-03T12:11:51.758Z,101182.74
2023-02-03T12:15:03.885Z,101173.77
2023-02-03T12:17:46.324Z,101178.55
2023-02-03T12:20:57.860Z,101192.52
2023-02-03T12:23:40.716Z,101200.59
2023-02-03T12:26:29.629Z,101207.83
2023-02-03T12:29:21.681Z,101195.34
2023-02-03T12:32:15.166Z,101194.06
2023-02-03T12:34:56.655Z,101193.27
2023-02-03T12:38:03.814Z,101195.21
2023-02-03T12:40:44.426Z,101181.92
2023-02-03T12:43:39.571Z,101177.71
2023-02-03T12:46:33.781Z,101173.73
2023-02-03T12:49:31.836Z,101180.84
2023-02-03T12:52:35.176Z,101178.21
2023-02-03T12:55:23.996Z,101175.50
2023-02-03T12:58:20.740Z,101173.92
2023-02-03T13:01:09.153Z,101173.99
2023-02-03T13:04:10.130Z,101178.33
2023-02-03T13:06:54.220Z,101171.66
2023-02-03T13:10:05.778Z,101168.58
2023-02-03T13:12:43.161Z,101166.17
2023-02-03T13:15:48.332Z,101166.48
2023-02-03T13:18:38.117Z,101167.67
2023-02-03T13:21:11.068Z,101167.83
2023-02-03T13:23:51.645Z,101166.61
2023-02-03T13:26:32.389Z,101161.45
2023-02-03T13:29:35.307Z,101159.97
2023-02-03T13:32:19.323Z,101150.20
2023-02-03T13:35:21.647Z,101148.73
2023-02-03T13:38:37.942Z,101148.18
2023-02-03T13:41:23.067Z,101140.83
2023-02-03T13:43:53.651Z,101132.98
2023-02-03T13:46:32.865Z,101127.36
2023-02-03T13:49:05.030Z,101132.83
2023-02-03T13:51:38.189Z,101140.42
2023-02-03T13:54:13.211Z,101131.02
2023-02-03T13:56:42.555Z,101131.39
2023-02-03T13:59:14.371Z,101129.33
2023-02-03T14:01:44.733Z,101121.63
2023-02-03T14:04:25.450Z,101113.59
2023-02-03T14:06:54.229Z,101115.34
2023-02-03T14:09:23.054Z,101123.36
2023-02-03T14:12:13.231Z,101119.91
2023-02-03T14:15:05.168Z,101115.23
2023-02-03T14:17:42.869Z,101109.19
2023-02-03T14:20:29.372Z,101109.95
2023-02-03T14:23:06.773Z,101109.33
2023-02-03T14:25:45.388Z,101106.27
2023-02-03T14:28:44.116Z,101103.98
2023-02-03T14:31:25.299Z,101097.16
2023-02-03T14:34:08.133Z,101097.02
2023-02-03T14:36:50.723Z,101093.88
2023-02-03T14:39:22.667Z,101093.45
2023-02-03T14:42:04.181Z,101095.54
2023-02-03T14:45:29.845Z,101092.79
2023-02-03T14:48:19.829Z,101087.77
2023-02-03T14:51:35.740Z,101084.79
2023-02-03T14:54:55.414Z,101084.97
2023-02-03T14:58:05.450Z,101080.71
2023-02-03T15:00:37.881Z,101075.34
2023-02-03T15:03:15.186Z,101076.77
2023-02-03T15:05:46.723Z,101071.38
2023-02-03T15:08:48.319Z,101067.38
2023-02-03T15:11:24.966Z,101061.48
2023-02-03T15:13:55.890Z,101062.69
2023-02-03T15:16:26.632Z,101064.77
2023-02-03T15:19:16.171Z,101065.30
2023-02-03T15:21:45.391Z,101065.11
2023-02-03T15:24:22.994Z,101065.70
2023-02-03T15:26:56.715Z,101066.32
2023-02-03T15:29:31.517Z,101067.81
2023-02-03T15:32:13.092Z,101066.44
2023-02-03T15:34:53.678Z,101071.02
2023-02-03T15:37:42.184Z,101072.85
2023-02-03T15:40:20.840Z,101075.66
2023-02-03T15:43:16.298Z,101079.16
2023-02-03T15:46:31.835Z,101080.33
2023-02-03T15:49:22.469Z,101070.13
2023-02-03T15:52:19.729Z,101068.41
2023-02-03T15:54:55.008Z,101062.45
2023-02-03T15:57:32.123Z,101061.98
2023-02-03T16:00:34.734Z,101062.19
2023-02-03T16:03:07.210Z,101059.60
2023-02-03T16:05:39.487Z,101060.82
2023-02-03T16:08:40.662Z,101062.55
2023-02-03T16:11:21.681Z,101057.90
2023-02-03T16:13:50.977Z,101063.21
2023-02-03T16:16:26.918Z,101059.79
2023-02-03T16:18:59.062Z,101056.83
2023-02-03T16:21:37.879Z,101057.20
2023-02-03T16:24:07.107Z,101062.89
2023-02-03T16:26:38.596Z,101062.80
2023-02-03T16:29:28.557Z,101061.13
2023-02-03T16:32:16.977Z,101057.71
2023-02-03T16:35:04.367Z,101054.16
2023-02-03T16:38:03.379Z,101057.45
2023-02-03T16:40:50.268Z,101054.02
2023-02-03T16:43:37.416Z,101049.26
2023-02-03T16:46:31.016Z,101044.19
2023-02-03T16:49:17.954Z,101048.36
2023-02-03T16:51:46.729Z,101043.59
2023-02-03T16:54:15.591Z,101049.40
2023-02-03T16:56:44.902Z,101045.80
2023-02-03T16:59:13.807Z,101040.73
2023-02-03T17:01:42.729Z,101039.92
2023-02-03T17:04:11.884Z,101030.02
2023-02-03T17:06:41.578Z,101024.90
2023-02-03T17:09:10.673Z,101020.16
2023-02-03T17:11:39.815Z,101013.69
2023-02-03T17:14:08.992Z,101011.16
2023-02-03T17:16:37.842Z,101009.99
2023-02-03T17:19:06.714Z,101007.15
2023-02-03T17:21:35.580Z,101002.63
2023-02-03T17:24:04.731Z,100999.06
2023-02-03T17:26:34.539Z,100995.64
2023-02-03T17:29:03.732Z,100987.63
2023-02-03T17:31:33.056Z,100997.48
2023-02-03T17:34:01.819Z,100999.43
2023-02-03T17:36:30.675Z,101001.01
2023-02-03T17:55:34.143Z,100982.52
2023-02-03T17:58:03.087Z,100981.33
2023-02-03T18:00:32.235Z,100978.16
2023-02-03T18:03:01.294Z,100976.23
2023-02-03T18:05:30.242Z,100980.46
2023-02-03T18:08:03.137Z,100974.45
2023-02-03T18:10:37.918Z,100970.06
2023-02-03T18:13:06.790Z,100965.75
2023-02-03T18:15:37.956Z,100967.03
2023-02-03T18:18:07.333Z,100962.80
2023-02-03T18:20:36.174Z,100954.08
2023-02-03T18:23:05.075Z,100949.15
2023-02-03T18:25:36.242Z,100945.23
2023-02-03T18:28:05.318Z,100947.25
2023-02-03T18:30:34.241Z,100938.16
2023-02-03T18:33:04.095Z,100937.58
2023-02-03T18:35:34.078Z,100934.09
2023-02-03T18:38:03.326Z,100927.55
2023-02-03T18:40:32.261Z,100924.08
2023-02-03T18:43:02.583Z,100917.66
2023-02-03T18:45:34.425Z,100916.80
2023-02-03T18:48:03.358Z,100910.71
2023-02-03T18:50:32.573Z,100900.04
2023-02-03T18:53:01.455Z,100895.45
2023-02-03T18:55:30.279Z,100890.49
2023-02-03T18:57:59.098Z,100884.73
2023-02-03T19:00:28.498Z,100876.41
2023-02-03T19:02:57.664Z,100876.91
2023-02-03T19:05:26.559Z,100870.72
2023-02-03T19:07:55.717Z,100867.11
2023-02-03T19:10:24.587Z,100865.21
2023-02-03T19:12:53.439Z,100862.30
2023-02-03T19:15:22.296Z,100858.56
2023-02-03T19:17:51.598Z,100856.75
2023-02-03T19:20:20.780Z,100853.73
2023-02-03T19:22:50.542Z,100848.70
2023-02-03T19:25:19.432Z,100843.78
2023-02-03T19:27:48.961Z,100838.84
2023-02-03T19:30:18.046Z,100836.71
2023-02-03T19:32:46.886Z,100836.77
2023-02-03T19:35:15.716Z,100839.15
2023-02-03T19:37:44.589Z,100834.91
2023-02-03T19:40:13.286Z,100829.77
2023-02-03T19:42:42.082Z,100825.61
2023-02-03T19:45:11.953Z,100825.91
2023-02-03T19:47:40.850Z,100817.47
2023-02-03T19:50:10.290Z,100812.80
2023-02-03T19:52:39.078Z,100811.39
2023-02-03T19:55:08.129Z,100800.75
2023-02-03T19:57:36.825Z,100797.62
2023-02-03T20:00:06.633Z,100798.73
2023-02-03T20:02:42.351Z,100795.80
2023-02-03T20:05:11.958Z,100795.01
2023-02-03T20:07:40.878Z,100789.12
2023-02-03T20:10:10.307Z,100784.29
2023-02-03T20:12:39.021Z,100783.16
2023-02-03T20:15:08.654Z,100781.69
2023-02-03T20:17:37.565Z,100774.81
2023-02-03T20:20:06.799Z,100773.00
2023-02-03T20:22:35.669Z,100767.13
2023-02-03T20:25:06.293Z,100764.30
2023-02-03T20:27:35.235Z,100759.98
2023-02-03T20:30:04.880Z,100755.77
2023-02-03T20:32:34.126Z,100753.96
2023-02-03T20:35:04.657Z,100743.48
2023-02-03T20:37:36.318Z,100745.10
2023-02-03T20:40:17.194Z,100743.46
2023-02-03T20:42:47.558Z,100740.97
2023-02-03T20:45:18.028Z,100738.29
2023-02-03T20:47:47.369Z,100732.35
2023-02-03T20:50:31.704Z,100727.07
2023-02-03T20:53:30.093Z,100725.75
2023-02-03T20:56:01.874Z,100726.65
2023-02-03T20:58:35.404Z,100729.24
2023-02-03T21:01:21.021Z,100726.22
2023-02-03T21:04:08.411Z,100730.67
2023-02-03T21:06:37.291Z,100727.80
2023-02-03T21:09:18.607Z,100728.30
2023-02-03T21:11:47.462Z,100720.34
2023-02-03T21:14:28.262Z,100721.02
2023-02-03T21:16:57.120Z,100720.69
2023-02-03T21:19:33.570Z,100716.62
2023-02-03T21:22:25.565Z,100719.54
2023-02-03T21:25:03.472Z,100711.22
2023-02-03T21:27:34.762Z,100711.34
2023-02-03T21:30:30.815Z,100702.16
2023-02-03T21:33:01.263Z,100700.92
2023-02-03T21:35:34.534Z,100701.37
2023-02-03T21:38:31.178Z,100700.97
2023-02-03T21:41:01.416Z,100695.95
2023-02-03T21:43:30.537Z,100691.30
2023-02-03T21:45:59.335Z,100683.05
2023-02-03T21:48:34.865Z,100681.95
2023-02-03T21:51:12.498Z,100679.20
2023-02-03T21:53:51.590Z,100679.13
2023-02-03T21:56:27.639Z,100676.67
2023-02-03T21:58:59.101Z,100675.92
2023-02-03T22:01:34.840Z,100673.33
2023-02-03T22:04:04.315Z,100671.27
2023-02-03T22:06:56.278Z,100669.85
2023-02-03T22:09:27.210Z,100663.49
2023-02-03T22:11:56.178Z,100654.73
2023-02-03T22:14:24.930Z,100653.17
2023-02-03T22:16:53.743Z,100649.45
2023-02-03T22:19:22.723Z,100643.02
2023-02-03T22:21:52.591Z,100640.52
2023-02-03T22:24:21.383Z,100638.82
2023-02-03T22:26:50.072Z,100638.52
2023-02-03T22:29:18.911Z,100633.08
2023-02-03T22:31:47.822Z,100629.88
2023-02-03T22:34:16.725Z,100630.08
2023-02-03T22:36:45.419Z,100627.23
2023-02-03T22:39:14.139Z,100628.32
2023-02-03T22:41:42.828Z,100627.65
2023-02-03T22:44:16.162Z,100628.70
2023-02-03T22:46:44.952Z,100618.77
2023-02-03T22:49:13.676Z,100617.92
2023-02-03T22:51:42.480Z,100614.31
2023-02-03T22:54:11.226Z,100611.35
2023-02-03T22:56:40.002Z,100608.54
2023-02-03T22:59:08.792Z,100605.80
2023-02-03T23:01:37.577Z,100603.69
2023-02-03T23:04:06.439Z,100600.69
2023-02-03T23:06:35.120Z,100597.80
2023-02-03T23:09:04.046Z,100594.52
2023-02-03T23:11:33.743Z,100588.02
2023-02-03T23:14:02.574Z,100583.76
2023-02-03T23:16:31.369Z,100584.61
2023-02-03T23:19:00.143Z,100578.95
2023-02-03T23:21:28.901Z,100583.91
2023-02-03T23:23:57.753Z,100578.82
2023-02-03T23:26:26.514Z,100576.80
2023-02-03T23:28:55.321Z,100573.54
2023-02-03T23:31:24.234Z,100568.23
2023-02-03T23:34:11.360Z,100564.50
2023-02-03T23:36:40.188Z,100562.49
2023-02-03T23:39:08.917Z,100561.67
2023-02-03T23:41:37.742Z,100560.31
2023-02-03T23:44:06.446Z,100558.96
2023-02-03T23:46:35.372Z,100559.30
2023-02-03T23:49:04.157Z,100556.90
2023-02-03T23:51:32.942Z,100555.02
2023-02-03T23:54:01.672Z,100552.96
2023-02-03T23:56:30.453Z,100556.17
2023-02-03T23:58:59.228Z,100551.62
